Time;durP1;ratioP1;P1;durP2;ratioP2;P2;SDS_P1;SDS_P2;PMS_P1;PMS_P2;Temp;Humidity;BMP_temperature;BMP_pressure;BME280_temperature;BME280_humidity;BME280_pressure;Samples;Min_cycle;Max_cycle;Signal;HPM_P1;HPM_P2
2024/03/09 00:00:20;;;;;;;36.20;29.30;;;4.70;99.90;;;;;;5022016;28;20072;-77
2024/03/09 00:02:48;;;;;;;34.78;27.95;;;4.60;99.90;;;;;;5001916;28;20037;-78
2024/03/09 00:05:14;;;;;;;36.80;29.42;;;4.60;99.90;;;;;;5018826;28;20395;-77
2024/03/09 00:07:40;;;;;;;33.50;28.40;;;4.50;99.90;;;;;;4998499;28;20359;-77
2024/03/09 00:10:07;;;;;;;32.67;28.60;;;4.50;99.90;;;;;;5012301;28;20172;-77
2024/03/09 00:12:33;;;;;;;33.33;28.90;;;4.50;99.90;;;;;;5019667;28;20550;-77
2024/03/09 00:15:01;;;;;;;32.85;29.02;;;4.50;99.90;;;;;;5015638;28;20046;-77
2024/03/09 00:17:31;;;;;;;34.42;28.85;;;4.40;99.90;;;;;;5020406;28;20044;-77
2024/03/09 00:19:58;;;;;;;31.73;28.23;;;4.40;99.90;;;;;;5003998;28;20038;-77
2024/03/09 00:22:27;;;;;;;32.25;28.38;;;4.40;99.90;;;;;;5002062;28;20527;-78
2024/03/09 00:24:54;;;;;;;29.87;26.60;;;4.40;99.90;;;;;;5033825;28;20546;-77
2024/03/09 00:27:24;;;;;;;32.10;27.95;;;4.40;99.90;;;;;;5007777;28;20042;-82
2024/03/09 00:29:59;;;;;;;30.42;27.13;;;4.40;99.90;;;;;;5003065;28;20780;-78
2024/03/09 00:32:25;;;;;;;31.38;27.33;;;4.40;99.90;;;;;;5002075;28;20388;-77
2024/03/09 00:34:52;;;;;;;32.67;27.73;;;4.40;99.90;;;;;;5011379;28;20033;-77
2024/03/09 00:37:17;;;;;;;31.98;27.70;;;4.40;99.90;;;;;;5018039;28;20049;-76
2024/03/09 00:39:43;;;;;;;33.03;28.23;;;4.40;99.90;;;;;;5003341;28;20234;-76
2024/03/09 00:42:14;;;;;;;32.53;28.20;;;4.30;99.90;;;;;;5011383;28;20068;-78
2024/03/09 00:44:41;;;;;;;32.13;26.73;;;4.30;99.90;;;;;;5003345;28;20490;-76
2024/03/09 00:47:08;;;;;;;32.95;27.08;;;4.30;99.90;;;;;;4996796;28;20076;-77
2024/03/09 00:49:34;;;;;;;32.20;27.08;;;4.30;99.90;;;;;;5017590;28;20487;-78
2024/03/09 00:52:05;;;;;;;30.65;26.45;;;4.30;99.90;;;;;;5002625;28;20965;-78
2024/03/09 00:54:32;;;;;;;30.05;26.73;;;4.30;99.90;;;;;;5007032;28;20048;-77
2024/03/09 00:56:58;;;;;;;34.95;28.23;;;4.30;99.90;;;;;;5015432;28;20037;-78
2024/03/09 00:59:24;;;;;;;30.65;26.40;;;4.20;99.90;;;;;;5013171;28;20128;-77
2024/03/09 01:01:50;;;;;;;31.77;27.27;;;4.20;99.90;;;;;;5007121;28;20053;-78
2024/03/09 01:04:16;;;;;;;31.60;27.27;;;4.20;99.90;;;;;;5013029;28;20508;-78
2024/03/09 01:06:42;;;;;;;32.80;27.17;;;4.10;99.90;;;;;;5027499;28;20539;-78
2024/03/09 01:09:10;;;;;;;34.28;27.33;;;4.10;99.90;;;;;;5009740;28;20480;-77
2024/03/09 01:11:38;;;;;;;32.15;27.67;;;4.20;99.90;;;;;;4997512;28;20060;-78
2024/03/09 01:14:04;;;;;;;30.98;26.33;;;4.20;99.90;;;;;;5004996;28;20032;-79
2024/03/09 01:16:30;;;;;;;33.22;27.25;;;4.20;99.90;;;;;;5011178;28;20591;-78
2024/03/09 01:18:56;;;;;;;29.45;25.90;;;4.10;99.90;;;;;;5013815;28;20044;-77
2024/03/09 01:21:22;;;;;;;33.53;28.05;;;4.00;99.90;;;;;;5015924;28;20045;-78
2024/03/09 01:23:48;;;;;;;31.23;27.02;;;4.00;99.90;;;;;;5022797;28;20055;-77
2024/03/09 01:26:17;;;;;;;34.65;27.33;;;4.10;99.90;;;;;;5005569;28;20586;-78
2024/03/09 01:28:45;;;;;;;30.80;25.85;;;4.00;99.90;;;;;;5018503;28;20103;-79
2024/03/09 01:31:13;;;;;;;30.55;25.92;;;4.00;99.90;;;;;;4997450;28;20043;-78
2024/03/09 01:33:39;;;;;;;35.38;28.42;;;4.00;99.90;;;;;;4998335;28;20049;-78
2024/03/09 01:36:06;;;;;;;32.78;26.63;;;3.90;99.90;;;;;;5012106;28;20048;-76
2024/03/09 01:38:37;;;;;;;32.83;27.48;;;3.90;99.90;;;;;;5002444;28;20156;-78
2024/03/09 01:41:03;;;;;;;32.47;27.20;;;3.90;99.90;;;;;;5019666;28;20088;-78
2024/03/09 01:43:29;;;;;;;31.90;27.52;;;3.90;99.90;;;;;;5001819;28;20088;-78
2024/03/09 01:45:56;;;;;;;32.42;27.70;;;3.90;99.90;;;;;;5038345;28;20453;-77
2024/03/09 01:48:22;;;;;;;32.03;26.55;;;3.90;99.90;;;;;;5014880;28;20049;-77
2024/03/09 01:50:51;;;;;;;31.75;26.90;;;3.80;99.90;;;;;;5002337;28;20076;-78
2024/03/09 01:53:19;;;;;;;31.17;25.70;;;3.80;99.90;;;;;;4998324;28;20103;-78
2024/03/09 01:55:49;;;;;;;32.67;26.70;;;3.80;99.90;;;;;;5015131;28;20041;-77
2024/03/09 01:58:19;;;;;;;33.50;26.77;;;3.80;99.90;;;;;;5000861;28;20400;-78
2024/03/09 02:00:54;;;;;;;33.25;27.10;;;3.80;99.90;;;;;;5013833;28;20050;-78
2024/03/09 02:03:22;;;;;;;30.98;26.30;;;3.80;99.90;;;;;;4999138;28;20052;-77
2024/03/09 02:05:50;;;;;;;30.52;26.73;;;3.70;99.90;;;;;;5011252;28;20447;-78
2024/03/09 02:08:17;;;;;;;33.55;27.55;;;3.70;99.90;;;;;;5013992;28;20046;-79
2024/03/09 02:10:43;;;;;;;34.05;27.85;;;3.70;99.90;;;;;;5018833;28;20049;-77
2024/03/09 02:13:10;;;;;;;31.73;27.00;;;3.70;99.90;;;;;;5011939;28;20075;-77
2024/03/09 02:15:38;;;;;;;32.35;27.25;;;3.70;99.90;;;;;;5012370;28;20048;-78
2024/03/09 02:18:06;;;;;;;33.08;27.17;;;3.80;99.90;;;;;;4999873;28;20041;-78
2024/03/09 02:20:32;;;;;;;31.85;27.58;;;3.70;99.90;;;;;;4994343;28;20045;-78
2024/03/09 02:22:59;;;;;;;33.53;28.20;;;3.70;99.90;;;;;;4998853;28;20053;-77
2024/03/09 02:25:25;;;;;;;32.58;26.83;;;3.70;99.90;;;;;;5000989;28;20056;-76
2024/03/09 02:27:54;;;;;;;36.92;29.05;;;3.60;99.90;;;;;;5015375;28;20049;-77
2024/03/09 02:30:20;;;;;;;31.83;26.65;;;3.60;99.90;;;;;;5007999;28;20496;-78
2024/03/09 02:32:46;;;;;;;35.33;28.20;;;3.60;99.90;;;;;;5022843;28;20107;-77
2024/03/09 02:35:12;;;;;;;31.40;27.60;;;3.60;99.90;;;;;;4996506;28;20037;-78
2024/03/09 02:37:39;;;;;;;34.88;27.40;;;3.60;99.90;;;;;;4997685;28;20045;-79
2024/03/09 02:40:07;;;;;;;33.42;28.50;;;3.60;99.90;;;;;;5013905;28;20080;-79
2024/03/09 02:42:34;;;;;;;36.20;28.65;;;3.60;99.90;;;;;;5014181;28;20061;-78
2024/03/09 02:45:00;;;;;;;35.00;29.23;;;3.60;99.90;;;;;;4998773;28;20056;-78
2024/03/09 02:47:26;;;;;;;33.83;28.27;;;3.60;99.90;;;;;;4998671;28;20040;-78
2024/03/09 02:49:54;;;;;;;34.72;28.17;;;3.60;99.90;;;;;;5007400;28;20044;-77
2024/03/09 02:52:20;;;;;;;32.67;27.10;;;3.50;99.90;;;;;;5008206;28;20063;-76
2024/03/09 02:54:46;;;;;;;33.80;27.88;;;3.50;99.90;;;;;;4994818;28;20033;-78
2024/03/09 02:57:16;;;;;;;33.58;27.65;;;3.50;99.90;;;;;;4997721;28;20098;-77
2024/03/09 02:59:43;;;;;;;31.40;27.55;;;3.50;99.90;;;;;;5015507;28;20077;-78
2024/03/09 03:05:08;;;;;;;34.05;29.02;;;3.50;99.90;;;;;;4971198;28;20447;-77
2024/03/09 03:07:34;;;;;;;34.30;28.25;;;3.50;99.90;;;;;;5001155;28;20053;-78
2024/03/09 03:10:00;;;;;;;32.33;28.85;;;3.50;99.90;;;;;;5010167;28;20508;-79
2024/03/09 03:12:26;;;;;;;36.58;30.38;;;3.50;99.90;;;;;;5017723;28;20063;-79
2024/03/09 03:14:52;;;;;;;34.60;29.90;;;3.40;99.90;;;;;;5006336;28;20677;-78
2024/03/09 03:17:18;;;;;;;31.73;28.00;;;3.40;99.90;;;;;;5017325;28;20049;-78
2024/03/09 03:19:43;;;;;;;33.13;29.58;;;3.40;99.90;;;;;;5023909;28;20068;-78
2024/03/09 03:22:10;;;;;;;34.38;29.05;;;3.40;99.90;;;;;;5019245;28;20061;-78
2024/03/09 03:24:36;;;;;;;35.05;29.17;;;3.30;99.90;;;;;;5021593;28;20096;-78
2024/03/09 03:27:05;;;;;;;34.85;29.63;;;3.30;99.90;;;;;;5001520;28;20127;-76
2024/03/09 03:29:32;;;;;;;34.70;30.35;;;3.30;99.90;;;;;;5014708;28;20557;-78
2024/03/09 03:32:00;;;;;;;34.97;29.92;;;3.30;99.90;;;;;;5022886;28;20538;-77
2024/03/09 03:34:26;;;;;;;34.60;29.83;;;3.30;99.90;;;;;;4998766;28;20803;-76
2024/03/09 03:36:54;;;;;;;37.00;31.73;;;3.30;99.90;;;;;;5020194;28;20052;-76
2024/03/09 03:39:20;;;;;;;34.15;28.55;;;3.20;99.90;;;;;;5005406;28;20052;-78
2024/03/09 03:41:47;;;;;;;36.20;30.60;;;3.20;99.90;;;;;;5000661;28;21140;-79
2024/03/09 03:44:14;;;;;;;34.88;30.30;;;3.10;99.90;;;;;;5009470;28;20054;-77
2024/03/09 03:46:39;;;;;;;34.90;31.08;;;3.20;99.90;;;;;;5019624;28;20033;-77
2024/03/09 03:49:05;;;;;;;34.67;30.45;;;3.20;99.90;;;;;;5007731;28;20037;-78
2024/03/09 03:51:34;;;;;;;35.88;30.88;;;3.20;99.90;;;;;;5021788;28;20053;-78
2024/03/09 03:54:00;;;;;;;36.55;31.15;;;3.20;99.90;;;;;;5007638;28;20060;-76
2024/03/09 03:56:26;;;;;;;37.15;30.55;;;3.10;99.90;;;;;;5001895;28;20041;-76
2024/03/09 03:58:53;;;;;;;36.83;31.17;;;3.10;99.90;;;;;;5001733;28;20084;-77
2024/03/09 04:01:21;;;;;;;36.65;31.05;;;3.00;99.90;;;;;;5018231;28;20055;-77
2024/03/09 04:03:47;;;;;;;35.95;30.63;;;3.00;99.90;;;;;;5009692;28;20049;-78
2024/03/09 04:06:13;;;;;;;34.70;30.33;;;3.00;99.90;;;;;;4994081;28;20044;-77
2024/03/09 04:08:39;;;;;;;35.00;31.00;;;3.00;99.90;;;;;;5006695;28;20041;-76
2024/03/09 04:11:05;;;;;;;34.55;30.40;;;2.90;99.90;;;;;;5004761;28;20041;-77
2024/03/09 04:13:32;;;;;;;39.38;33.85;;;2.90;99.90;;;;;;5021278;28;20048;-77
2024/03/09 04:16:01;;;;;;;37.58;30.75;;;2.90;99.90;;;;;;5021905;28;20041;-78
2024/03/09 04:18:29;;;;;;;38.95;32.75;;;2.90;99.90;;;;;;5018761;28;20400;-80
2024/03/09 04:20:59;;;;;;;38.95;31.58;;;2.90;99.90;;;;;;5005798;28;20499;-77
2024/03/09 04:23:24;;;;;;;39.30;32.47;;;2.90;99.90;;;;;;5013069;28;20072;-78
2024/03/09 04:25:52;;;;;;;40.45;32.35;;;2.90;99.90;;;;;;5021382;28;20491;-78
2024/03/09 04:28:20;;;;;;;37.55;32.05;;;2.90;99.90;;;;;;5024966;28;20061;-78
2024/03/09 04:30:48;;;;;;;38.25;33.17;;;2.80;99.90;;;;;;5021660;28;20052;-78
2024/03/09 04:33:15;;;;;;;38.95;33.08;;;2.90;99.90;;;;;;5020247;28;20049;-78
2024/03/09 04:35:48;;;;;;;40.97;33.97;;;2.80;99.90;;;;;;5019435;28;20049;-77
2024/03/09 04:38:15;;;;;;;37.28;30.98;;;2.80;99.90;;;;;;5020809;28;20467;-78
2024/03/09 04:40:43;;;;;;;39.03;32.70;;;2.80;99.90;;;;;;5014578;28;20521;-79
2024/03/09 04:43:11;;;;;;;36.63;31.83;;;2.80;99.90;;;;;;5003892;28;20064;-79
2024/03/09 04:45:37;;;;;;;38.20;33.22;;;2.80;99.90;;;;;;5018619;28;20048;-78
2024/03/09 04:48:04;;;;;;;36.92;32.88;;;2.80;99.90;;;;;;5005218;28;20048;-79
2024/03/09 04:50:33;;;;;;;37.75;31.80;;;2.70;99.90;;;;;;5017112;28;20049;-78
2024/03/09 04:52:58;;;;;;;38.50;33.05;;;2.70;99.90;;;;;;5019284;28;20510;-76
2024/03/09 04:55:28;;;;;;;41.92;34.22;;;2.70;99.90;;;;;;5022725;28;20037;-76
2024/03/09 04:57:54;;;;;;;37.40;32.53;;;2.70;99.90;;;;;;5002367;28;20042;-78
2024/03/09 05:00:21;;;;;;;40.15;33.83;;;2.70;99.90;;;;;;5005983;28;20044;-77
2024/03/09 05:02:48;;;;;;;38.17;33.45;;;2.60;99.90;;;;;;5012171;28;20049;-78
2024/03/09 05:05:18;;;;;;;40.92;34.53;;;2.70;99.90;;;;;;5000133;28;20047;-76
2024/03/09 05:07:48;;;;;;;38.78;33.38;;;2.70;99.90;;;;;;5004233;28;20041;-77
2024/03/09 05:10:18;;;;;;;39.65;33.35;;;2.70;99.90;;;;;;5025548;28;20119;-77
2024/03/09 05:12:53;;;;;;;38.47;33.55;;;2.60;99.90;;;;;;5018967;28;20041;-76
2024/03/09 05:15:29;;;;;;;42.33;35.10;;;2.60;99.90;;;;;;4999352;28;20480;-78
2024/03/09 05:17:58;;;;;;;38.85;32.45;;;2.60;99.90;;;;;;5002317;28;20125;-77
2024/03/09 05:20:25;;;;;;;42.42;35.30;;;2.60;99.90;;;;;;5018211;28;20483;-76
2024/03/09 05:22:52;;;;;;;42.40;35.08;;;2.50;99.90;;;;;;5022552;28;20106;-76
2024/03/09 05:25:21;;;;;;;40.42;34.92;;;2.50;99.90;;;;;;5001443;28;20492;-76
2024/03/09 05:27:48;;;;;;;42.85;35.75;;;2.50;99.90;;;;;;5004055;28;20045;-76
2024/03/09 05:30:19;;;;;;;43.92;35.83;;;2.50;99.90;;;;;;5017515;28;20076;-76
2024/03/09 05:32:53;;;;;;;41.08;34.83;;;2.50;99.90;;;;;;5003776;28;20041;-77
2024/03/09 05:35:20;;;;;;;41.40;35.88;;;2.50;99.90;;;;;;5001945;28;21208;-77
2024/03/09 05:37:49;;;;;;;42.35;36.47;;;2.50;99.90;;;;;;5004665;28;20492;-76
2024/03/09 05:40:16;;;;;;;41.30;36.35;;;2.50;99.90;;;;;;4998555;28;20044;-77
2024/03/09 05:42:43;;;;;;;43.33;36.10;;;2.50;99.90;;;;;;5018909;28;20056;-77
2024/03/09 05:45:15;;;;;;;42.25;36.53;;;2.40;99.90;;;;;;5001040;28;20090;-76
2024/03/09 05:47:55;;;;;;;43.78;36.67;;;2.40;99.90;;;;;;5015737;28;20049;-79
2024/03/09 05:50:22;;;;;;;43.03;37.33;;;2.30;99.90;;;;;;5019959;28;20103;-78
2024/03/09 05:52:52;;;;;;;43.47;36.83;;;2.40;99.90;;;;;;5001962;28;20053;-77
2024/03/09 05:55:19;;;;;;;44.85;37.85;;;2.40;99.90;;;;;;5018554;28;20069;-78
2024/03/09 05:57:49;;;;;;;42.75;37.03;;;2.40;99.90;;;;;;5003772;28;20052;-77
2024/03/09 06:00:27;;;;;;;43.97;38.60;;;2.40;99.90;;;;;;5023497;28;20048;-77
2024/03/09 06:02:57;;;;;;;44.42;37.50;;;2.30;99.90;;;;;;5016914;28;20527;-77
2024/03/09 06:05:28;;;;;;;46.58;38.58;;;2.30;99.90;;;;;;5014786;28;20053;-77
2024/03/09 06:07:57;;;;;;;46.80;38.40;;;2.30;99.90;;;;;;5016779;28;20209;-77
2024/03/09 06:10:24;;;;;;;43.72;38.08;;;2.30;99.90;;;;;;4996271;28;20667;-77
2024/03/09 06:12:51;;;;;;;45.22;38.42;;;2.30;99.90;;;;;;4996850;28;20650;-78
2024/03/09 06:15:19;;;;;;;46.42;39.38;;;2.30;99.90;;;;;;5004236;28;20063;-78
2024/03/09 06:17:52;;;;;;;45.92;39.63;;;2.30;99.90;;;;;;5012248;28;20526;-78
2024/03/09 06:20:18;;;;;;;48.50;41.05;;;2.30;99.90;;;;;;5000716;28;20054;-79
2024/03/09 06:22:45;;;;;;;46.33;40.40;;;2.30;99.90;;;;;;4996381;28;20135;-78
2024/03/09 06:25:19;;;;;;;46.55;40.30;;;2.30;99.90;;;;;;5014659;28;20049;-78
2024/03/09 06:27:45;;;;;;;50.15;40.22;;;2.40;99.90;;;;;;5002189;28;20516;-78
2024/03/09 06:30:15;;;;;;;46.92;38.90;;;2.40;99.90;;;;;;5010519;28;20403;-78
2024/03/09 06:32:44;;;;;;;44.30;38.72;;;2.40;99.90;;;;;;4994716;28;20601;-80
2024/03/09 06:35:10;;;;;;;46.03;39.38;;;2.40;99.90;;;;;;5019906;28;20056;-76
2024/03/09 06:37:36;;;;;;;46.42;39.42;;;2.40;99.90;;;;;;5020449;28;20055;-76
2024/03/09 06:40:06;;;;;;;46.53;39.22;;;2.40;99.90;;;;;;5015041;28;20455;-76
2024/03/09 06:42:32;;;;;;;46.05;38.78;;;2.50;99.90;;;;;;5020008;28;20065;-77
2024/03/09 06:44:59;;;;;;;48.38;40.65;;;2.50;99.90;;;;;;5005324;28;20044;-77
2024/03/09 06:47:25;;;;;;;45.88;38.95;;;2.60;99.90;;;;;;5001871;28;20033;-78
2024/03/09 06:49:52;;;;;;;48.90;40.58;;;2.60;99.90;;;;;;5003141;28;20052;-79
2024/03/09 06:52:18;;;;;;;44.15;38.72;;;2.60;99.90;;;;;;5021402;28;20041;-78
2024/03/09 06:54:46;;;;;;;43.08;37.53;;;2.70;99.90;;;;;;5022090;28;20052;-77
2024/03/09 06:57:11;;;;;;;45.30;38.75;;;2.70;99.90;;;;;;4995474;28;20041;-79
2024/03/09 06:59:40;;;;;;;48.63;40.42;;;2.70;99.90;;;;;;5022314;28;20102;-79
2024/03/09 07:02:07;;;;;;;45.63;40.38;;;2.80;99.90;;;;;;5005224;28;20052;-77
2024/03/09 07:04:33;;;;;;;46.33;39.67;;;2.80;99.90;;;;;;5018938;28;20518;-77
2024/03/09 07:06:59;;;;;;;45.90;39.08;;;2.90;99.90;;;;;;5024156;28;20041;-77
2024/03/09 07:09:24;;;;;;;48.25;40.55;;;2.90;99.90;;;;;;5002372;28;20060;-77
2024/03/09 07:11:51;;;;;;;46.33;40.47;;;2.90;99.90;;;;;;5006907;28;20054;-78
2024/03/09 07:14:22;;;;;;;45.13;40.20;;;2.90;99.90;;;;;;5019693;28;20622;-78
2024/03/09 07:16:49;;;;;;;42.42;37.80;;;3.00;99.90;;;;;;5005990;28;20430;-78
2024/03/09 07:19:16;;;;;;;49.15;41.15;;;3.00;99.90;;;;;;5032198;28;20400;-78
2024/03/09 07:21:42;;;;;;;47.05;40.80;;;3.10;99.90;;;;;;5004037;28;20425;-76
2024/03/09 07:24:07;;;;;;;46.75;38.80;;;3.10;99.90;;;;;;5002793;28;20075;-77
2024/03/09 07:26:35;;;;;;;45.33;39.67;;;3.20;99.90;;;;;;5016945;28;20052;-79
2024/03/09 07:29:02;;;;;;;44.95;39.42;;;3.20;99.90;;;;;;5023212;28;21285;-78
2024/03/09 07:31:28;;;;;;;46.58;39.92;;;3.30;99.90;;;;;;5005365;28;20033;-78
2024/03/09 07:33:56;;;;;;;48.92;40.22;;;3.30;99.90;;;;;;5006260;28;20045;-78
2024/03/09 07:36:25;;;;;;;45.67;39.75;;;3.30;99.90;;;;;;5020184;28;20308;-80
2024/03/09 07:38:51;;;;;;;45.22;37.83;;;3.40;99.90;;;;;;5020691;28;20056;-77
2024/03/09 07:41:20;;;;;;;45.63;39.53;;;3.50;99.90;;;;;;5023664;28;20059;-78
2024/03/09 07:43:46;;;;;;;47.25;39.63;;;3.60;99.90;;;;;;5022920;28;20483;-78
2024/03/09 07:46:13;;;;;;;45.20;38.50;;;3.70;99.90;;;;;;5004185;28;20569;-80
2024/03/09 07:48:40;;;;;;;43.72;38.17;;;3.70;99.90;;;;;;5021842;28;20045;-76
2024/03/09 07:51:10;;;;;;;45.75;38.22;;;3.70;99.90;;;;;;5013679;28;20045;-77
2024/03/09 07:53:36;;;;;;;44.85;39.00;;;3.80;99.90;;;;;;5020291;28;20805;-78
2024/03/09 07:56:02;;;;;;;45.17;38.78;;;3.90;99.90;;;;;;5022368;28;20065;-79
2024/03/09 07:58:28;;;;;;;42.08;37.50;;;4.00;99.90;;;;;;5018498;28;20044;-78
2024/03/09 08:00:54;;;;;;;43.53;37.08;;;4.00;99.90;;;;;;5017336;28;20604;-78
2024/03/09 08:03:22;;;;;;;41.38;36.65;;;4.10;99.90;;;;;;5014228;28;20064;-78
2024/03/09 08:05:49;;;;;;;43.97;37.67;;;4.20;99.90;;;;;;5000376;28;20469;-77
2024/03/09 08:08:17;;;;;;;44.30;38.88;;;4.30;99.90;;;;;;5005651;28;20037;-78
2024/03/09 08:10:52;;;;;;;43.67;38.05;;;4.40;99.90;;;;;;5017764;28;20049;-78
2024/03/09 08:13:19;;;;;;;42.92;37.03;;;4.50;99.90;;;;;;5002074;28;20125;-77
2024/03/09 08:15:48;;;;;;;42.25;36.63;;;4.60;99.90;;;;;;5002784;28;20131;-78
2024/03/09 08:18:14;;;;;;;43.92;36.95;;;4.70;99.90;;;;;;5000207;28;20132;-77
2024/03/09 08:20:41;;;;;;;40.25;35.33;;;4.80;99.90;;;;;;5015625;28;20049;-77
2024/03/09 08:23:06;;;;;;;40.00;35.60;;;5.00;99.90;;;;;;5010951;28;20041;-77
2024/03/09 08:25:32;;;;;;;40.95;35.97;;;5.10;99.90;;;;;;5014477;28;20043;-79
2024/03/09 08:28:01;;;;;;;39.55;35.35;;;5.30;99.90;;;;;;5014701;28;20075;-78
2024/03/09 08:30:31;;;;;;;38.63;34.42;;;5.40;99.90;;;;;;5020733;28;20040;-77
2024/03/09 08:33:00;;;;;;;41.28;34.75;;;5.50;99.90;;;;;;5003645;28;20419;-77
2024/03/09 08:35:31;;;;;;;40.33;35.92;;;5.60;99.90;;;;;;4997359;28;20033;-77
2024/03/09 08:37:57;;;;;;;38.42;33.78;;;5.60;99.90;;;;;;4999917;28;20519;-77
2024/03/09 08:40:25;;;;;;;40.55;35.78;;;5.50;99.90;;;;;;5013937;28;20037;-77
2024/03/09 08:42:52;;;;;;;41.53;34.95;;;5.30;99.90;;;;;;5001772;28;20047;-77
2024/03/09 08:45:20;;;;;;;39.08;34.35;;;5.20;99.90;;;;;;4998541;28;20076;-78
2024/03/09 08:47:46;;;;;;;41.70;35.65;;;5.20;99.90;;;;;;5003775;28;20037;-77
2024/03/09 08:50:13;;;;;;;40.80;35.83;;;5.30;99.90;;;;;;5010993;28;20122;-78
2024/03/09 08:52:40;;;;;;;38.83;34.35;;;5.30;99.90;;;;;;5013290;28;20052;-78
2024/03/09 08:55:12;;;;;;;39.97;33.70;;;5.50;99.90;;;;;;5016597;28;20141;-77
2024/03/09 08:57:46;;;;;;;36.95;32.95;;;5.60;99.90;;;;;;5000529;28;20041;-78
2024/03/09 09:00:13;;;;;;;38.60;34.40;;;5.70;99.90;;;;;;5017344;28;20114;-77
2024/03/09 09:02:40;;;;;;;37.90;33.53;;;5.80;99.90;;;;;;5014734;28;20037;-77
2024/03/09 09:05:11;;;;;;;38.85;33.42;;;5.90;99.90;;;;;;5013437;28;20464;-76
2024/03/09 09:07:48;;;;;;;36.28;32.15;;;6.00;99.90;;;;;;4997212;28;20120;-76
2024/03/09 09:10:15;;;;;;;37.35;33.15;;;6.00;99.90;;;;;;5000072;28;20506;-77
2024/03/09 09:12:46;;;;;;;38.58;34.40;;;6.10;99.90;;;;;;5003386;28;20794;-76
2024/03/09 09:15:13;;;;;;;37.90;33.53;;;6.10;99.90;;;;;;5016179;28;20049;-76
2024/03/09 09:17:42;;;;;;;37.00;32.65;;;6.30;99.90;;;;;;5015976;28;20034;-76
2024/03/09 09:20:11;;;;;;;37.83;33.13;;;6.40;99.90;;;;;;4997986;28;20046;-77
2024/03/09 09:22:47;;;;;;;38.10;33.90;;;6.60;99.90;;;;;;5016718;28;20048;-77
2024/03/09 09:25:13;;;;;;;37.10;33.17;;;6.60;99.90;;;;;;4996504;28;20529;-77
2024/03/09 09:27:43;;;;;;;37.83;33.15;;;6.60;99.90;;;;;;5013924;28;20036;-77
2024/03/09 09:30:09;;;;;;;37.20;33.35;;;6.60;99.90;;;;;;5023282;28;20033;-78
2024/03/09 09:32:40;;;;;;;36.85;33.05;;;6.60;99.90;;;;;;4999905;28;20048;-77
2024/03/09 09:35:06;;;;;;;37.25;33.30;;;6.50;99.90;;;;;;5012021;28;20052;-77
2024/03/09 09:37:33;;;;;;;35.92;32.05;;;6.50;99.90;;;;;;5013798;28;20052;-78
2024/03/09 09:40:02;;;;;;;37.92;34.00;;;6.50;99.90;;;;;;4998062;28;20071;-77
2024/03/09 09:42:30;;;;;;;36.38;32.55;;;6.40;99.90;;;;;;5008734;28;20098;-77
2024/03/09 09:44:57;;;;;;;36.47;32.67;;;6.50;99.90;;;;;;5014147;28;20456;-75
2024/03/09 09:47:27;;;;;;;38.20;32.97;;;6.40;99.90;;;;;;4997365;28;20037;-76
2024/03/09 09:49:55;;;;;;;38.70;34.58;;;6.40;99.90;;;;;;5013815;28;20040;-76
2024/03/09 09:52:25;;;;;;;37.70;33.75;;;6.50;99.90;;;;;;4997880;28;20068;-76
2024/03/09 09:54:58;;;;;;;35.80;31.80;;;6.50;99.90;;;;;;4997880;28;20049;-76
2024/03/09 09:57:25;;;;;;;36.88;32.88;;;6.50;99.90;;;;;;5016283;28;20518;-77
2024/03/09 09:59:50;;;;;;;36.47;32.58;;;6.60;99.90;;;;;;5012116;28;20049;-76
2024/03/09 10:02:18;;;;;;;35.88;31.13;;;6.70;99.90;;;;;;5011877;28;20049;-77
2024/03/09 10:04:44;;;;;;;37.22;32.60;;;6.70;99.90;;;;;;5019360;28;20461;-76
2024/03/09 10:07:10;;;;;;;35.40;31.70;;;6.90;99.90;;;;;;4999227;28;20036;-77
2024/03/09 10:09:36;;;;;;;36.40;31.92;;;7.00;99.90;;;;;;5016052;28;20381;-76
2024/03/09 10:12:03;;;;;;;37.03;32.28;;;7.20;99.90;;;;;;5013274;28;20047;-76
2024/03/09 10:14:30;;;;;;;35.72;31.88;;;7.30;99.90;;;;;;4999303;28;20115;-77
2024/03/09 10:17:09;;;;;;;32.75;29.35;;;7.40;99.90;;;;;;5010504;28;20040;-76
2024/03/09 10:19:37;;;;;;;34.35;30.77;;;7.50;99.90;;;;;;5003609;28;20471;-77
2024/03/09 10:22:03;;;;;;;34.70;31.10;;;7.50;99.90;;;;;;5012850;28;20503;-76
2024/03/09 10:24:28;;;;;;;34.95;31.27;;;7.60;99.90;;;;;;4999802;28;20186;-77
2024/03/09 10:27:04;;;;;;;35.22;31.52;;;7.60;99.90;;;;;;5017627;28;20661;-76
2024/03/09 10:29:30;;;;;;;34.35;30.55;;;7.70;99.90;;;;;;5016046;28;20112;-76
2024/03/09 10:31:58;;;;;;;33.75;30.13;;;7.80;99.90;;;;;;5018980;28;20053;-77
2024/03/09 10:34:30;;;;;;;33.28;29.75;;;7.80;99.90;;;;;;5009870;28;20044;-76
2024/03/09 10:37:00;;;;;;;35.03;31.05;;;7.90;99.90;;;;;;5018464;28;20052;-78
2024/03/09 10:39:27;;;;;;;35.83;32.15;;;8.00;99.90;;;;;;5008471;28;20128;-76
2024/03/09 10:41:56;;;;;;;35.15;30.10;;;8.00;99.90;;;;;;5007921;28;20128;-76
2024/03/09 10:44:23;;;;;;;33.92;30.30;;;8.10;99.90;;;;;;5024085;28;20382;-76
2024/03/09 10:46:53;;;;;;;32.60;28.75;;;8.10;99.90;;;;;;5021589;28;20468;-76
2024/03/09 10:49:22;;;;;;;34.15;30.65;;;8.10;99.90;;;;;;5018590;28;20052;-76
2024/03/09 10:51:52;;;;;;;34.65;30.55;;;8.10;99.90;;;;;;5021110;28;20516;-77
2024/03/09 10:54:33;;;;;;;32.53;29.10;;;8.10;99.90;;;;;;5000825;28;20493;-76
2024/03/09 10:57:06;;;;;;;32.72;29.02;;;8.10;99.90;;;;;;5021522;28;20056;-76
2024/03/09 10:59:32;;;;;;;33.40;29.77;;;8.10;99.90;;;;;;5020223;28;20490;-76
2024/03/09 11:02:02;;;;;;;33.65;30.02;;;8.10;99.90;;;;;;5018305;28;20590;-77
2024/03/09 11:04:29;;;;;;;34.45;30.75;;;8.10;99.90;;;;;;5015433;28;20049;-77
2024/03/09 11:06:55;;;;;;;33.13;29.52;;;8.10;99.90;;;;;;5006605;28;20071;-77
2024/03/09 11:09:31;;;;;;;33.08;29.58;;;8.00;99.90;;;;;;5021489;28;20316;-76
2024/03/09 11:12:02;;;;;;;35.38;31.65;;;8.00;99.90;;;;;;5011554;28;20526;-76
2024/03/09 11:14:28;;;;;;;34.05;30.40;;;8.00;99.90;;;;;;5025449;28;20391;-76
2024/03/09 11:16:55;;;;;;;33.47;29.98;;;8.00;99.90;;;;;;5021525;28;20042;-76
2024/03/09 11:19:21;;;;;;;34.95;31.35;;;8.10;99.90;;;;;;5006548;28;20049;-76
2024/03/09 11:21:51;;;;;;;34.05;30.35;;;8.00;99.90;;;;;;4998743;28;20041;-76
2024/03/09 11:24:27;;;;;;;33.15;29.63;;;8.00;99.90;;;;;;5018502;28;20124;-76
2024/03/09 11:26:57;;;;;;;33.33;29.80;;;8.00;99.90;;;;;;5032883;28;20099;-76
2024/03/09 11:29:28;;;;;;;35.28;31.48;;;8.10;99.90;;;;;;5009651;28;20043;-76
2024/03/09 11:31:57;;;;;;;32.03;28.55;;;8.10;99.90;;;;;;4998977;28;20473;-76
2024/03/09 11:34:23;;;;;;;32.47;29.00;;;8.30;99.90;;;;;;5023052;28;20127;-77
2024/03/09 11:36:55;;;;;;;32.95;29.17;;;8.40;99.90;;;;;;5001406;28;20043;-77
2024/03/09 11:39:23;;;;;;;31.65;28.38;;;8.50;99.90;;;;;;5014859;28;20221;-76
2024/03/09 11:41:50;;;;;;;32.25;28.90;;;8.60;99.90;;;;;;5008731;28;20049;-78
2024/03/09 11:44:20;;;;;;;32.90;29.23;;;8.70;99.90;;;;;;5017521;28;20041;-77
2024/03/09 11:46:47;;;;;;;33.15;29.58;;;8.90;99.90;;;;;;5015362;28;20052;-77
2024/03/09 11:49:13;;;;;;;32.38;29.08;;;8.90;99.90;;;;;;5022843;28;20067;-77
2024/03/09 11:51:39;;;;;;;32.63;29.13;;;8.90;99.90;;;;;;5015243;28;20053;-77
2024/03/09 11:54:09;;;;;;;32.40;28.92;;;8.90;99.90;;;;;;5035323;28;20064;-77
2024/03/09 11:56:35;;;;;;;;;;;8.90;99.90;;;;;;5015585;28;20485;-80
2024/03/09 11:59:06;;;;;;;34.65;28.98;;;8.90;99.90;;;;;;5024969;28;20293;-77
2024/03/09 12:01:35;;;;;;;31.92;28.52;;;8.90;99.90;;;;;;4998119;28;20488;-76
2024/03/09 12:04:04;;;;;;;32.53;28.90;;;9.00;99.90;;;;;;5023247;28;20053;-76
2024/03/09 12:06:30;;;;;;;32.38;28.40;;;9.10;99.90;;;;;;5005546;28;20048;-76
2024/03/09 12:08:57;;;;;;;31.25;27.30;;;9.30;99.90;;;;;;5003699;28;20049;-78
2024/03/09 12:11:25;;;;;;;30.90;27.60;;;9.40;99.90;;;;;;5018901;28;20041;-77
2024/03/09 12:13:52;;;;;;;30.02;26.75;;;9.40;99.90;;;;;;5007562;28;20057;-75
2024/03/09 12:16:19;;;;;;;30.73;27.52;;;9.50;99.90;;;;;;5002416;28;20059;-76
2024/03/09 12:18:50;;;;;;;29.77;26.70;;;9.50;99.90;;;;;;5023020;28;20045;-77
2024/03/09 12:21:20;;;;;;;30.42;27.13;;;9.60;99.90;;;;;;5017908;28;20075;-77
2024/03/09 12:23:54;;;;;;;30.00;26.80;;;9.70;99.90;;;;;;5014765;28;20301;-76
2024/03/09 12:26:21;;;;;;;29.83;26.63;;;9.80;99.90;;;;;;5020582;28;20043;-76
2024/03/09 12:28:47;;;;;;;27.85;24.90;;;9.80;99.90;;;;;;4999338;28;20045;-76
2024/03/09 12:31:14;;;;;;;30.25;27.08;;;9.80;99.90;;;;;;5012900;28;20038;-76
2024/03/09 12:33:40;;;;;;;29.48;26.38;;;9.80;99.90;;;;;;5005032;28;20483;-76
2024/03/09 12:36:10;;;;;;;30.25;26.85;;;9.90;99.90;;;;;;5003438;28;20041;-77
2024/03/09 12:38:39;;;;;;;29.90;26.90;;;10.00;99.90;;;;;;4997582;28;20046;-76
2024/03/09 12:41:23;;;;;;;28.52;25.55;;;10.00;99.90;;;;;;4999385;28;20482;-75
2024/03/09 12:43:49;;;;;;;28.50;25.13;;;10.10;99.90;;;;;;5015762;28;20083;-76